ESGG/GOT METAR and TAF weather

Enter ICAO airport designator
Station Type Date Time Source
ESGG METAR 2018/12/13 15:20 UTC NOAA

ESGG 131520Z 06010KT 9999 BKN019 M01/M04 Q1031 R03/19//95


Station Type Date Time Source
ESGG Decoded METAR 2018/12/13 15:20 UTC NOAA

Goteborg / Landvetter, Sweden (ESGG) 57-40N 012-18E
Dec 13, 2018 - 10:20 AM EST / 2018.12.13 1520 UTC
Wind: from the ENE (060 degrees) at 12 MPH (10 KT):0
Visibility: greater than 7 mile(s):0
Sky conditions: mostly cloudy
Temperature: 30 F (-1 C)
Windchill: 19 F (-7 C):1
Dew Point: 24 F (-4 C)
Relative Humidity: 80%
Pressure (altimeter): 30.45 in. Hg (1031 hPa)
ob: ESGG 131520Z 06010KT 9999 BKN019 M01/M04 Q1031 R03/19//95
cycle: 15

Station Type Date Time Source
ESGG TAF 2018/12/13 12:33 UTC NOAA

TAF TAF ESGG 131130Z 1312/1412 05007KT 9999 OVC045


Example: see airport list